ASY11 EGVN-ENGM
Flight info
| Callsign | ASY11 |
|---|---|
| Flight time | N/A |
| Altitude | 21000 |
| Route | KIDLI DCT BKY M183 REDFA DCT DISRA DCT SUTEB DCT OKMAM P850 DANKO M604 SVA M609 RIPAM |
| Aircraft | C30J/M-SDE2E3FGRY/H |
Departure
| Time | N/A |
|---|---|
| Airport | RAF Brize Norton (EGVN) |
Arrival
| Time | 2026-05-05 18:19 |
|---|---|
| Airport | Oslo-Gardermoen International Airport (ENGM) |
| Time | Latitude | Longitude | Altitude | Speed | Heading |
|---|---|---|---|---|---|
| 2026-05-05 17:43 | 58.01042 | 7.82260 | 20952 ft | 383 kts | 24° |
| 2026-05-05 17:43 | 58.03309 | 7.84869 | 20955 ft | 382 kts | 24° |
| 2026-05-05 17:43 | 58.05577 | 7.87481 | 20953 ft | 382 kts | 24° |
| 2026-05-05 17:43 | 58.07830 | 7.90152 | 20952 ft | 384 kts | 27° |
| 2026-05-05 17:44 | 58.09984 | 7.93133 | 20954 ft | 386 kts | 30° |
| 2026-05-05 17:44 | 58.12132 | 7.96201 | 20952 ft | 387 kts | 30° |
| 2026-05-05 17:44 | 58.14278 | 7.99255 | 20954 ft | 386 kts | 30° |
| 2026-05-05 17:44 | 58.16427 | 8.02305 | 20955 ft | 387 kts | 30° |
| 2026-05-05 17:45 | 58.18579 | 8.05362 | 20954 ft | 387 kts | 30° |
| 2026-05-05 17:45 | 58.20736 | 8.08428 | 20955 ft | 387 kts | 30° |
| 2026-05-05 17:45 | 58.22895 | 8.11504 | 20995 ft | 388 kts | 29° |
| 2026-05-05 17:45 | 58.25058 | 8.14592 | 20956 ft | 389 kts | 30° |
| 2026-05-05 17:46 | 58.27218 | 8.17679 | 20958 ft | 389 kts | 29° |
| 2026-05-05 17:46 | 58.29380 | 8.20775 | 20955 ft | 390 kts | 29° |
| 2026-05-05 17:46 | 58.31545 | 8.23880 | 20943 ft | 389 kts | 29° |
| 2026-05-05 17:46 | 58.33701 | 8.26976 | 20953 ft | 389 kts | 30° |
| 2026-05-05 17:47 | 58.35835 | 8.30044 | 20948 ft | 389 kts | 30° |
| 2026-05-05 17:47 | 58.38018 | 8.33192 | 20947 ft | 389 kts | 30° |
| 2026-05-05 17:47 | 58.40150 | 8.36269 | 20949 ft | 389 kts | 30° |
| 2026-05-05 17:47 | 58.42305 | 8.39384 | 20942 ft | 390 kts | 30° |
| 2026-05-05 17:48 | 58.44468 | 8.42516 | 20948 ft | 390 kts | 30° |
| 2026-05-05 17:48 | 58.46628 | 8.45648 | 20941 ft | 389 kts | 30° |
| 2026-05-05 17:48 | 58.48773 | 8.48764 | 20944 ft | 389 kts | 30° |
| 2026-05-05 17:48 | 58.50914 | 8.51880 | 20941 ft | 389 kts | 30° |
| 2026-05-05 17:49 | 58.53069 | 8.55022 | 20941 ft | 389 kts | 30° |
| 2026-05-05 17:49 | 58.55221 | 8.58162 | 20945 ft | 389 kts | 30° |
| 2026-05-05 17:49 | 58.57381 | 8.61321 | 20942 ft | 390 kts | 30° |
| 2026-05-05 17:49 | 58.59531 | 8.64469 | 20941 ft | 390 kts | 30° |
| 2026-05-05 17:50 | 58.61671 | 8.67609 | 20942 ft | 389 kts | 30° |
| 2026-05-05 17:50 | 58.63820 | 8.70768 | 20944 ft | 389 kts | 30° |
| 2026-05-05 17:50 | 58.65976 | 8.73940 | 20939 ft | 389 kts | 30° |
| 2026-05-05 17:50 | 58.68125 | 8.77105 | 20938 ft | 390 kts | 30° |
| 2026-05-05 17:51 | 58.70278 | 8.80282 | 20938 ft | 389 kts | 30° |
| 2026-05-05 17:51 | 58.72425 | 8.83458 | 20942 ft | 389 kts | 30° |
| 2026-05-05 17:51 | 58.74572 | 8.86638 | 20950 ft | 390 kts | 29° |
| 2026-05-05 17:51 | 58.76728 | 8.89835 | 20919 ft | 392 kts | 29° |
| 2026-05-05 17:52 | 58.78887 | 8.93044 | 20940 ft | 392 kts | 29° |
| 2026-05-05 17:52 | 58.81052 | 8.96266 | 20923 ft | 392 kts | 29° |
| 2026-05-05 17:52 | 58.83182 | 8.99443 | 20936 ft | 392 kts | 29° |
| 2026-05-05 17:52 | 58.85344 | 9.02674 | 20934 ft | 393 kts | 29° |
| 2026-05-05 17:53 | 58.87506 | 9.05909 | 20938 ft | 393 kts | 29° |
| 2026-05-05 17:53 | 58.89665 | 9.09143 | 20935 ft | 393 kts | 29° |
| 2026-05-05 17:53 | 58.91800 | 9.12347 | 20936 ft | 394 kts | 30° |
| 2026-05-05 17:53 | 58.93960 | 9.15597 | 20933 ft | 393 kts | 30° |
| 2026-05-05 17:54 | 58.96110 | 9.18834 | 20932 ft | 393 kts | 30° |
| 2026-05-05 17:54 | 58.98277 | 9.22102 | 20932 ft | 393 kts | 30° |
| 2026-05-05 17:54 | 59.00434 | 9.25362 | 20964 ft | 394 kts | 29° |
| 2026-05-05 17:54 | 59.02598 | 9.28637 | 20926 ft | 394 kts | 29° |
| 2026-05-05 17:55 | 59.04752 | 9.31904 | 20922 ft | 393 kts | 29° |
| 2026-05-05 17:55 | 59.06908 | 9.35177 | 20923 ft | 393 kts | 29° |
| 2026-05-05 17:55 | 59.09039 | 9.38628 | 20897 ft | 401 kts | 39° |
| 2026-05-05 17:55 | 59.10640 | 9.43117 | 20939 ft | 410 kts | 54° |
| 2026-05-05 17:56 | 59.12017 | 9.47779 | 20690 ft | 385 kts | 54° |
| 2026-05-05 17:56 | 59.13298 | 9.52180 | 20325 ft | 366 kts | 54° |
| 2026-05-05 17:56 | 59.14524 | 9.56441 | 19755 ft | 357 kts | 54° |
| 2026-05-05 17:56 | 59.15722 | 9.60630 | 19112 ft | 352 kts | 54° |
| 2026-05-05 17:57 | 59.16882 | 9.64699 | 18440 ft | 348 kts | 54° |
| 2026-05-05 17:57 | 59.18072 | 9.68872 | 17662 ft | 347 kts | 54° |
| 2026-05-05 17:57 | 59.19221 | 9.72877 | 17069 ft | 339 kts | 54° |
| 2026-05-05 17:57 | 59.20361 | 9.76824 | 16466 ft | 330 kts | 54° |
| 2026-05-05 17:58 | 59.21481 | 9.80678 | 15879 ft | 323 kts | 54° |
| 2026-05-05 17:58 | 59.22585 | 9.84451 | 15293 ft | 315 kts | 54° |
| 2026-05-05 17:58 | 59.23662 | 9.88111 | 14827 ft | 305 kts | 54° |
| 2026-05-05 17:58 | 59.24703 | 9.91654 | 14283 ft | 296 kts | 54° |
| 2026-05-05 17:59 | 59.25722 | 9.95101 | 13689 ft | 291 kts | 54° |
| 2026-05-05 17:59 | 59.26720 | 9.98423 | 13053 ft | 284 kts | 54° |
| 2026-05-05 17:59 | 59.27727 | 10.01716 | 12367 ft | 280 kts | 54° |
| 2026-05-05 17:59 | 59.28726 | 10.04919 | 11958 ft | 266 kts | 54° |
| 2026-05-05 18:00 | 59.29654 | 10.07878 | 11892 ft | 251 kts | 54° |
| 2026-05-05 18:00 | 59.30612 | 10.10905 | 11943 ft | 272 kts | 54° |
| 2026-05-05 18:00 | 59.31611 | 10.14034 | 11922 ft | 279 kts | 54° |
| 2026-05-05 18:00 | 59.32636 | 10.17244 | 11920 ft | 278 kts | 54° |
| 2026-05-05 18:01 | 59.33656 | 10.20445 | 11922 ft | 277 kts | 54° |
| 2026-05-05 18:01 | 59.34675 | 10.23642 | 11908 ft | 277 kts | 54° |
| 2026-05-05 18:01 | 59.35696 | 10.26840 | 11920 ft | 277 kts | 54° |
| 2026-05-05 18:01 | 59.36719 | 10.30051 | 11917 ft | 277 kts | 54° |
| 2026-05-05 18:02 | 59.37741 | 10.33260 | 11910 ft | 277 kts | 54° |
| 2026-05-05 18:02 | 59.38760 | 10.36463 | 11921 ft | 277 kts | 54° |
| 2026-05-05 18:02 | 59.39782 | 10.39671 | 11917 ft | 278 kts | 53° |
| 2026-05-05 18:02 | 59.40804 | 10.42908 | 11923 ft | 280 kts | 54° |
| 2026-05-05 18:03 | 59.41823 | 10.46152 | 11934 ft | 279 kts | 54° |
| 2026-05-05 18:03 | 59.42818 | 10.49323 | 11919 ft | 279 kts | 54° |
| 2026-05-05 18:03 | 59.43839 | 10.52572 | 11924 ft | 279 kts | 54° |
| 2026-05-05 18:03 | 59.44833 | 10.55754 | 11672 ft | 267 kts | 54° |
| 2026-05-05 18:04 | 59.46003 | 10.58504 | 10987 ft | 260 kts | 38° |
| 2026-05-05 18:04 | 59.47367 | 10.60822 | 10290 ft | 258 kts | 36° |
| 2026-05-05 18:04 | 59.48751 | 10.63055 | 9622 ft | 255 kts | 35° |
| 2026-05-05 18:04 | 59.50128 | 10.65227 | 8931 ft | 252 kts | 35° |
| 2026-05-05 18:05 | 59.51484 | 10.67352 | 8257 ft | 249 kts | 35° |
| 2026-05-05 18:05 | 59.52827 | 10.69447 | 7624 ft | 245 kts | 35° |
| 2026-05-05 18:05 | 59.54156 | 10.71506 | 7101 ft | 236 kts | 35° |
| 2026-05-05 18:05 | 59.55390 | 10.73421 | 7005 ft | 220 kts | 35° |
| 2026-05-05 18:06 | 59.56581 | 10.75272 | 7018 ft | 222 kts | 35° |
| 2026-05-05 18:06 | 59.56989 | 10.75907 | 7020 ft | 222 kts | 35° |
| 2026-05-05 18:06 | 59.59008 | 10.79044 | 7025 ft | 222 kts | 35° |
| 2026-05-05 18:06 | 59.60224 | 10.80935 | 7020 ft | 223 kts | 35° |
| 2026-05-05 18:07 | 59.61414 | 10.82783 | 7018 ft | 223 kts | 35° |
| 2026-05-05 18:07 | 59.62632 | 10.84680 | 7020 ft | 222 kts | 35° |
| 2026-05-05 18:07 | 59.63846 | 10.86570 | 7023 ft | 223 kts | 35° |
| 2026-05-05 18:07 | 59.65061 | 10.88462 | 7013 ft | 223 kts | 35° |
| 2026-05-05 18:08 | 59.66278 | 10.90358 | 7016 ft | 222 kts | 35° |
| 2026-05-05 18:08 | 59.67599 | 10.91858 | 7035 ft | 218 kts | 16° |
| 2026-05-05 18:08 | 59.69036 | 10.92829 | 7020 ft | 218 kts | 15° |
| 2026-05-05 18:08 | 59.70472 | 10.93780 | 7016 ft | 218 kts | 15° |
| 2026-05-05 18:09 | 59.71910 | 10.94733 | 7029 ft | 218 kts | 15° |
| 2026-05-05 18:09 | 59.73376 | 10.95560 | 7001 ft | 218 kts | 4° |
| 2026-05-05 18:09 | 59.74883 | 10.95678 | 7022 ft | 216 kts | 356° |
| 2026-05-05 18:09 | 59.76333 | 10.95634 | 6695 ft | 206 kts | 355° |
| 2026-05-05 18:10 | 59.77775 | 10.95580 | 6113 ft | 208 kts | 355° |
| 2026-05-05 18:10 | 59.79225 | 10.95514 | 5530 ft | 208 kts | 355° |
| 2026-05-05 18:10 | 59.80662 | 10.95441 | 4979 ft | 206 kts | 355° |
| 2026-05-05 18:10 | 59.82086 | 10.95361 | 4461 ft | 203 kts | 355° |
| 2026-05-05 18:11 | 59.83485 | 10.95275 | 4060 ft | 195 kts | 355° |
| 2026-05-05 18:11 | 59.84795 | 10.95207 | 3992 ft | 187 kts | 355° |
| 2026-05-05 18:11 | 59.86114 | 10.95136 | 4009 ft | 191 kts | 355° |
| 2026-05-05 18:11 | 59.87474 | 10.95045 | 4015 ft | 194 kts | 355° |
| 2026-05-05 18:12 | 59.88822 | 10.94948 | 4016 ft | 192 kts | 355° |
| 2026-05-05 18:12 | 59.90162 | 10.94862 | 4006 ft | 193 kts | 355° |
| 2026-05-05 18:12 | 59.91053 | 10.94811 | 4012 ft | 193 kts | 355° |
| 2026-05-05 18:12 | 59.92402 | 10.94730 | 4007 ft | 194 kts | 355° |
| 2026-05-05 18:13 | 59.93742 | 10.94642 | 4008 ft | 193 kts | 355° |
| 2026-05-05 18:13 | 59.95087 | 10.94558 | 4011 ft | 194 kts | 355° |
| 2026-05-05 18:13 | 59.96427 | 10.94479 | 3999 ft | 192 kts | 355° |
| 2026-05-05 18:13 | 59.97762 | 10.94396 | 4007 ft | 191 kts | 355° |
| 2026-05-05 18:14 | 59.99097 | 10.94324 | 4008 ft | 193 kts | 355° |
| 2026-05-05 18:14 | 60.00431 | 10.94255 | 3992 ft | 194 kts | 359° |
| 2026-05-05 18:14 | 60.01753 | 10.94935 | 3803 ft | 197 kts | 18° |
| 2026-05-05 18:14 | 60.03011 | 10.95968 | 3636 ft | 193 kts | 18° |
| 2026-05-05 18:15 | 60.04225 | 10.96973 | 3475 ft | 196 kts | 19° |
| 2026-05-05 18:15 | 60.05459 | 10.98195 | 3342 ft | 198 kts | 24° |
| 2026-05-05 18:15 | 60.06651 | 10.99553 | 3318 ft | 196 kts | 28° |
| 2026-05-05 18:15 | 60.07723 | 11.01228 | 3269 ft | 195 kts | 37° |
| 2026-05-05 18:16 | 60.08677 | 11.03024 | 3083 ft | 183 kts | 40° |
| 2026-05-05 18:16 | 60.09543 | 11.04783 | 2777 ft | 174 kts | 39° |
| 2026-05-05 18:16 | 60.10434 | 11.06258 | 2441 ft | 159 kts | 28° |
| 2026-05-05 18:16 | 60.11376 | 11.07231 | 2241 ft | 142 kts | 18° |
| 2026-05-05 18:17 | 60.12270 | 11.07932 | 2034 ft | 138 kts | 14° |
| 2026-05-05 18:17 | 60.13186 | 11.08512 | 1835 ft | 140 kts | 9° |
| 2026-05-05 18:17 | 60.14132 | 11.08997 | 1570 ft | 142 kts | 8° |
| 2026-05-05 18:17 | 60.15120 | 11.09459 | 1314 ft | 149 kts | 9° |
| 2026-05-05 18:18 | 60.16142 | 11.09992 | 1023 ft | 155 kts | 12° |
| 2026-05-05 18:18 | 60.17163 | 11.10568 | 804 ft | 148 kts | 12° |
| 2026-05-05 18:18 | 60.18139 | 11.11105 | 685 ft | 140 kts | 12° |
| 2026-05-05 18:18 | 60.18853 | 11.11488 | 676 ft | 51 kts | 20° |
| 2026-05-05 18:19 | 60.19072 | 11.11627 | 678 ft | 27 kts | 14° |
| 2026-05-05 18:19 | 60.19256 | 11.11688 | 678 ft | 28 kts | 1° |
| 2026-05-05 18:19 | 60.19372 | 11.11556 | 678 ft | 12 kts | 295° |
| 2026-05-05 18:19 | 60.19379 | 11.11517 | 678 ft | 0 kts | 290° |
| 2026-05-05 18:20 | 60.19379 | 11.11516 | 678 ft | 0 kts | 290° |
| 2026-05-05 18:23 | 60.19411 | 11.11461 | 676 ft | 9 kts | 337° |
| 2026-05-05 18:23 | 60.19473 | 11.11479 | 676 ft | 9 kts | 17° |
| 2026-05-05 18:23 | 60.19554 | 11.11515 | 678 ft | 15 kts | 11° |
| 2026-05-05 18:23 | 60.19654 | 11.11557 | 679 ft | 12 kts | 21° |
| 2026-05-05 18:24 | 60.19733 | 11.11535 | 677 ft | 13 kts | 314° |
| 2026-05-05 18:24 | 60.19769 | 11.11397 | 676 ft | 9 kts | 304° |
| 2026-05-05 18:24 | 60.19793 | 11.11269 | 679 ft | 11 kts | 287° |
| 2026-05-05 18:24 | 60.19816 | 11.11111 | 677 ft | 12 kts | 288° |
| 2026-05-05 18:25 | 60.19842 | 11.10935 | 675 ft | 14 kts | 287° |
| 2026-05-05 18:25 | 60.19860 | 11.10804 | 678 ft | 15 kts | 284° |
| 2026-05-05 18:25 | 60.19894 | 11.10571 | 678 ft | 9 kts | 287° |
| 2026-05-05 18:25 | 60.19907 | 11.10477 | 678 ft | 6 kts | 285° |
| 2026-05-05 18:26 | 60.19920 | 11.10386 | 677 ft | 8 kts | 285° |
| 2026-05-05 18:26 | 60.19936 | 11.10259 | 677 ft | 9 kts | 285° |
| 2026-05-05 18:26 | 60.19953 | 11.10143 | 677 ft | 9 kts | 285° |
| 2026-05-05 18:26 | 60.19970 | 11.10024 | 674 ft | 9 kts | 287° |
| 2026-05-05 18:27 | 60.19987 | 11.09904 | 676 ft | 9 kts | 286° |
| 2026-05-05 18:27 | 60.20008 | 11.09765 | 676 ft | 11 kts | 287° |
| 2026-05-05 18:27 | 60.20032 | 11.09599 | 676 ft | 13 kts | 286° |
| 2026-05-05 18:27 | 60.20058 | 11.09425 | 674 ft | 12 kts | 285° |
| 2026-05-05 18:28 | 60.20092 | 11.09180 | 675 ft | 9 kts | 286° |
| 2026-05-05 18:28 | 60.20108 | 11.09063 | 674 ft | 6 kts | 284° |
| 2026-05-05 18:28 | 60.20116 | 11.09004 | 672 ft | 6 kts | 288° |
| 2026-05-05 18:29 | 60.20134 | 11.08886 | 675 ft | 12 kts | 285° |
| 2026-05-05 18:29 | 60.20157 | 11.08767 | 675 ft | 7 kts | 311° |
| 2026-05-05 18:29 | 60.20207 | 11.08750 | 675 ft | 6 kts | 356° |
| 2026-05-05 18:29 | 60.20243 | 11.08669 | 672 ft | 11 kts | 288° |
| 2026-05-05 18:30 | 60.20283 | 11.08408 | 675 ft | 24 kts | 284° |
| 2026-05-05 18:30 | 60.20320 | 11.08107 | 675 ft | 16 kts | 285° |
| 2026-05-05 18:30 | 60.20337 | 11.07941 | 675 ft | 10 kts | 259° |
| 2026-05-05 18:30 | 60.20300 | 11.07873 | 674 ft | 4 kts | 224° |
| 2026-05-05 18:31 | 60.20302 | 11.07796 | 675 ft | 8 kts | 283° |
| 2026-05-05 18:31 | 60.20311 | 11.07734 | 675 ft | 4 kts | 284° |
| 2026-05-05 18:31 | 60.20314 | 11.07715 | 675 ft | 0 kts | 285° |